createdAt,value
2023-03-13T00:01:45.160Z,17.73
2023-03-13T00:04:11.577Z,20.13
2023-03-13T00:06:39.673Z,14.68
2023-03-13T00:09:08.921Z,17.27
2023-03-13T00:11:35.999Z,17.08
2023-03-13T00:14:04.715Z,14.93
2023-03-13T00:16:31.509Z,20.73
2023-03-13T00:18:58.590Z,16.13
2023-03-13T00:21:26.864Z,16.45
2023-03-13T00:23:54.233Z,17.60
2023-03-13T00:26:23.219Z,13.75
2023-03-13T00:31:22.954Z,12.73
2023-03-13T00:33:52.537Z,11.43
2023-03-13T00:36:22.161Z,15.40
2023-03-13T00:38:48.696Z,14.55
2023-03-13T00:41:20.334Z,16.20
2023-03-13T00:43:48.349Z,19.30
2023-03-13T00:46:17.736Z,15.60
2023-03-13T00:48:44.586Z,15.48
2023-03-13T00:51:13.046Z,14.65
2023-03-13T00:53:39.580Z,18.48
2023-03-13T00:56:09.058Z,18.98
2023-03-13T00:58:37.947Z,20.63
2023-03-13T01:01:12.612Z,15.73
2023-03-13T01:03:41.397Z,15.77
2023-03-13T01:06:10.875Z,20.33
2023-03-13T01:08:37.666Z,18.25
2023-03-13T01:11:13.515Z,16.00
2023-03-13T01:13:40.732Z,17.35
2023-03-13T01:16:10.991Z,13.88
2023-03-13T01:18:39.626Z,13.23
2023-03-13T01:21:06.614Z,10.75
2023-03-13T01:23:33.346Z,14.48
2023-03-13T01:25:59.807Z,13.20
2023-03-13T01:28:26.863Z,18.80
2023-03-13T01:30:54.364Z,12.10
2023-03-13T01:33:21.023Z,15.45
2023-03-13T01:35:47.857Z,17.77
2023-03-13T01:38:14.652Z,10.80
2023-03-13T01:40:46.933Z,11.02
2023-03-13T01:43:27.587Z,13.00
2023-03-13T01:46:09.779Z,7.07
2023-03-13T01:48:43.489Z,8.95
2023-03-13T01:51:29.716Z,8.70
2023-03-13T01:54:06.499Z,9.40
2023-03-13T01:57:08.525Z,9.85
2023-03-13T01:59:42.703Z,6.72
2023-03-13T02:02:09.778Z,8.82
2023-03-13T02:04:39.883Z,8.73
2023-03-13T02:07:16.198Z,8.55
2023-03-13T02:09:45.185Z,11.55
2023-03-13T02:14:43.812Z,8.02
2023-03-13T02:17:11.134Z,10.85
2023-03-13T02:19:43.809Z,6.80
2023-03-13T02:22:44.699Z,8.25
2023-03-13T02:25:23.705Z,8.45
2023-03-13T02:28:00.489Z,7.95
2023-03-13T02:30:28.640Z,10.00
2023-03-13T02:32:55.556Z,10.05
2023-03-13T02:35:24.151Z,13.38
2023-03-13T02:37:55.723Z,8.35
2023-03-13T02:40:30.874Z,9.25
2023-03-13T02:43:01.172Z,10.68
2023-03-13T02:45:28.485Z,12.00
2023-03-13T02:47:54.988Z,7.68
2023-03-13T02:50:21.699Z,9.18
2023-03-13T02:53:03.570Z,11.20
2023-03-13T02:55:41.188Z,13.63
2023-03-13T02:58:10.073Z,10.80
2023-03-13T03:00:37.790Z,12.95
2023-03-13T03:03:04.300Z,9.65
2023-03-13T03:05:31.810Z,12.07
2023-03-13T03:07:58.501Z,11.80
2023-03-13T03:10:25.453Z,10.75
2023-03-13T03:12:52.191Z,14.65
2023-03-13T03:15:18.818Z,12.90
2023-03-13T03:17:47.486Z,12.20
2023-03-13T03:20:14.573Z,14.50
2023-03-13T03:22:42.797Z,12.80
2023-03-13T03:25:09.614Z,10.85
2023-03-13T03:27:36.620Z,10.00
2023-03-13T03:30:07.200Z,13.52
2023-03-13T03:32:35.458Z,12.18
2023-03-13T03:35:02.614Z,13.35
2023-03-13T03:37:29.362Z,11.20
2023-03-13T03:39:56.613Z,14.70
2023-03-13T03:42:23.082Z,11.23
2023-03-13T03:44:49.515Z,10.90
2023-03-13T03:47:16.219Z,15.82
2023-03-13T03:49:45.428Z,14.07
2023-03-13T03:52:13.373Z,12.30
2023-03-13T03:54:42.130Z,10.43
2023-03-13T03:57:08.987Z,11.43
2023-03-13T03:59:36.804Z,10.07
2023-03-13T04:02:06.650Z,11.73
2023-03-13T04:04:33.926Z,9.80
2023-03-13T04:07:12.671Z,9.60
2023-03-13T04:09:40.176Z,11.85
2023-03-13T04:12:08.926Z,10.82
2023-03-13T04:14:40.325Z,12.05
2023-03-13T04:17:09.878Z,11.10
2023-03-13T04:19:36.676Z,11.23
2023-03-13T04:22:03.475Z,10.13
2023-03-13T04:24:29.983Z,8.25
2023-03-13T04:26:57.248Z,8.60
2023-03-13T04:29:24.101Z,7.72
2023-03-13T04:32:02.339Z,7.18
2023-03-13T04:34:42.655Z,11.10
2023-03-13T04:37:24.457Z,8.95
2023-03-13T04:40:23.286Z,9.73
2023-03-13T04:42:49.682Z,10.48
2023-03-13T04:45:50.093Z,11.60
2023-03-13T04:48:26.123Z,7.45
2023-03-13T04:50:59.929Z,10.77
2023-03-13T04:53:44.763Z,8.10
2023-03-13T04:56:43.686Z,6.15
2023-03-13T04:59:29.506Z,9.52
2023-03-13T05:02:20.560Z,10.48
2023-03-13T05:05:05.764Z,8.32
2023-03-13T05:07:57.224Z,8.13
2023-03-13T05:10:33.275Z,9.25
2023-03-13T05:13:11.061Z,12.02
2023-03-13T05:15:50.842Z,9.82
2023-03-13T05:18:36.039Z,5.20
2023-03-13T05:21:20.290Z,6.43
2023-03-13T05:24:17.111Z,6.47
2023-03-13T05:27:04.401Z,13.05
2023-03-13T05:29:39.750Z,4.63
2023-03-13T05:32:06.625Z,8.95
2023-03-13T05:34:55.980Z,7.80
2023-03-13T05:37:42.952Z,8.10
2023-03-13T05:40:27.891Z,10.23
2023-03-13T05:43:12.863Z,6.50
2023-03-13T05:45:48.719Z,7.60
2023-03-13T05:48:38.149Z,6.75
2023-03-13T05:51:24.893Z,9.43
2023-03-13T05:54:05.071Z,10.55
2023-03-13T05:56:55.618Z,5.72
2023-03-13T05:59:37.221Z,7.13
2023-03-13T06:02:18.110Z,6.75
2023-03-13T06:04:47.475Z,9.88
2023-03-13T06:07:14.122Z,5.85
2023-03-13T06:09:40.964Z,14.07
2023-03-13T06:12:09.583Z,4.97
2023-03-13T06:14:36.020Z,9.77
2023-03-13T06:17:19.534Z,4.75
2023-03-13T06:19:49.074Z,6.22
2023-03-13T06:22:16.808Z,6.20
2023-03-13T06:24:45.011Z,9.15
2023-03-13T06:27:11.464Z,9.43
2023-03-13T06:29:38.138Z,8.75
2023-03-13T06:32:04.921Z,9.05
2023-03-13T06:34:31.444Z,6.80
2023-03-13T06:36:58.694Z,9.75
2023-03-13T06:39:25.154Z,5.40
2023-03-13T06:41:51.648Z,9.05
2023-03-13T06:44:18.250Z,6.68
2023-03-13T06:46:44.681Z,5.53
2023-03-13T06:49:11.166Z,7.63
2023-03-13T06:51:37.620Z,9.18
2023-03-13T06:54:04.060Z,9.65
2023-03-13T06:56:30.542Z,5.70
2023-03-13T06:58:59.535Z,6.60
2023-03-13T07:01:26.641Z,7.25
2023-03-13T07:03:53.230Z,7.15
2023-03-13T07:06:19.973Z,7.47
2023-03-13T07:08:47.023Z,7.53
2023-03-13T07:11:14.521Z,8.68
2023-03-13T07:13:41.128Z,9.00
2023-03-13T07:16:10.807Z,9.77
2023-03-13T07:18:38.168Z,6.82
2023-03-13T07:21:05.349Z,9.35
2023-03-13T07:23:34.502Z,7.97
2023-03-13T07:26:03.294Z,8.07
2023-03-13T07:28:35.022Z,6.68
2023-03-13T07:31:21.847Z,6.45
2023-03-13T07:33:48.452Z,7.55
2023-03-13T07:36:16.242Z,7.75
2023-03-13T07:38:43.947Z,7.07
2023-03-13T07:41:13.389Z,4.45
2023-03-13T07:43:39.839Z,8.27
2023-03-13T07:46:08.222Z,12.52
2023-03-13T07:48:37.154Z,7.70
2023-03-13T07:51:05.770Z,7.47
2023-03-13T07:53:32.465Z,8.60
2023-03-13T07:56:12.159Z,9.52
2023-03-13T07:58:40.307Z,7.20
2023-03-13T08:01:15.434Z,7.28
2023-03-13T08:03:42.068Z,7.40
2023-03-13T08:06:11.432Z,9.32
2023-03-13T08:08:38.884Z,9.18
2023-03-13T08:11:20.791Z,8.52
2023-03-13T08:13:49.689Z,9.07
2023-03-13T08:16:20.422Z,4.95
2023-03-13T08:18:48.906Z,8.10
2023-03-13T08:21:21.190Z,7.97
2023-03-13T08:23:48.417Z,6.78
2023-03-13T08:26:21.352Z,6.53
2023-03-13T08:28:52.023Z,9.50
2023-03-13T08:31:22.606Z,9.25
2023-03-13T08:33:49.482Z,8.32
2023-03-13T08:36:23.174Z,6.88
2023-03-13T08:38:50.497Z,9.50
2023-03-13T08:41:19.595Z,8.02
2023-03-13T08:43:46.804Z,12.30
2023-03-13T08:46:14.205Z,5.07
2023-03-13T08:48:41.458Z,6.18
2023-03-13T08:51:15.166Z,7.93
2023-03-13T08:53:43.311Z,7.57
2023-03-13T08:56:12.137Z,6.90
2023-03-13T09:01:11.056Z,8.32
2023-03-13T09:03:38.875Z,6.45
2023-03-13T09:06:05.774Z,7.25
2023-03-13T09:08:33.133Z,7.47
2023-03-13T09:11:02.276Z,6.00
2023-03-13T09:13:31.577Z,3.80
2023-03-13T09:16:12.349Z,4.85
2023-03-13T09:18:39.341Z,6.65
2023-03-13T09:21:08.230Z,9.15
2023-03-13T09:26:02.070Z,4.43
2023-03-13T09:28:28.668Z,6.45
2023-03-13T09:30:55.264Z,3.70
2023-03-13T09:33:24.084Z,4.97
2023-03-13T09:38:20.227Z,6.05
2023-03-13T09:41:04.947Z,3.92
2023-03-13T09:43:42.594Z,4.22
2023-03-13T09:46:18.330Z,6.22
2023-03-13T09:48:55.992Z,5.07
2023-03-13T09:51:36.754Z,7.63
2023-03-13T09:54:12.135Z,5.38
2023-03-13T09:56:47.854Z,3.60
2023-03-13T09:59:34.907Z,4.95
2023-03-13T10:02:05.562Z,4.20
2023-03-13T10:04:49.350Z,5.68
2023-03-13T10:07:15.903Z,6.05
2023-03-13T10:09:43.170Z,5.70
2023-03-13T10:12:28.776Z,2.72
2023-03-13T10:15:01.503Z,3.35
2023-03-13T10:17:40.507Z,8.50
2023-03-13T10:20:31.603Z,3.38
2023-03-13T10:23:06.689Z,3.42
2023-03-13T10:25:39.168Z,5.07
2023-03-13T10:28:10.206Z,4.25
2023-03-13T10:30:40.793Z,3.83
2023-03-13T10:33:07.147Z,3.30
2023-03-13T10:35:37.372Z,5.35
2023-03-13T10:38:12.693Z,2.97
2023-03-13T10:40:39.839Z,4.47
2023-03-13T10:43:13.542Z,2.58
2023-03-13T10:45:40.084Z,4.03
2023-03-13T10:48:19.307Z,4.47
2023-03-13T10:50:51.720Z,4.40
2023-03-13T10:53:30.513Z,4.15
2023-03-13T10:56:11.518Z,4.03
2023-03-13T10:58:51.740Z,3.85
2023-03-13T11:01:28.819Z,3.65
2023-03-13T11:03:57.028Z,2.45
2023-03-13T11:06:35.115Z,4.78
2023-03-13T11:09:13.030Z,4.38
2023-03-13T11:12:01.001Z,4.57
2023-03-13T11:14:27.581Z,5.43
2023-03-13T11:17:30.463Z,6.05
2023-03-13T11:20:22.143Z,9.00
2023-03-13T11:23:25.665Z,4.20
2023-03-13T11:26:12.580Z,4.68
2023-03-13T11:28:39.008Z,7.00
2023-03-13T11:31:08.295Z,3.25
2023-03-13T11:34:03.095Z,5.47
2023-03-13T11:36:39.038Z,5.28
2023-03-13T11:39:33.619Z,3.20
2023-03-13T11:42:16.206Z,3.72
2023-03-13T11:44:59.325Z,3.72
2023-03-13T11:47:36.818Z,5.80
2023-03-13T11:50:15.861Z,6.25
2023-03-13T11:53:16.565Z,3.60
2023-03-13T11:55:57.031Z,5.07
2023-03-13T11:58:32.843Z,4.65
2023-03-13T12:00:59.445Z,2.67
2023-03-13T12:03:38.993Z,3.92
2023-03-13T12:06:25.641Z,2.92
2023-03-13T12:09:00.405Z,2.70
2023-03-13T12:11:32.222Z,2.60
2023-03-13T12:14:13.536Z,3.33
2023-03-13T12:16:40.047Z,3.92
2023-03-13T12:19:11.733Z,5.55
2023-03-13T12:21:47.435Z,4.65
2023-03-13T12:24:27.632Z,3.50
2023-03-13T12:27:25.572Z,7.78
2023-03-13T12:32:40.575Z,7.13
2023-03-13T12:35:12.941Z,5.57
2023-03-13T12:37:47.854Z,5.53
2023-03-13T12:40:20.278Z,7.20
2023-03-13T12:42:57.091Z,6.22
2023-03-13T12:45:26.078Z,6.80
2023-03-13T12:48:21.305Z,8.07
2023-03-13T12:51:05.876Z,10.30
2023-03-13T12:54:03.668Z,9.30
2023-03-13T12:56:45.564Z,6.97
2023-03-13T12:59:19.277Z,9.63
2023-03-13T13:01:54.705Z,6.25
2023-03-13T13:04:27.101Z,6.45
2023-03-13T13:06:54.982Z,7.82
2023-03-13T13:10:01.149Z,7.15
2023-03-13T13:12:27.908Z,6.68
2023-03-13T13:15:03.899Z,9.13
2023-03-13T13:17:39.220Z,4.85
2023-03-13T13:20:36.105Z,5.85
2023-03-13T13:23:21.329Z,9.07
2023-03-13T13:25:49.651Z,6.85
2023-03-13T13:28:22.060Z,8.25
2023-03-13T13:30:55.361Z,6.85
2023-03-13T13:33:28.151Z,4.93
2023-03-13T13:36:09.918Z,6.22
2023-03-13T13:38:41.765Z,10.07
2023-03-13T13:41:11.001Z,7.32
2023-03-13T13:43:38.395Z,8.00
2023-03-13T13:46:16.231Z,5.38
2023-03-13T13:48:43.398Z,10.95
2023-03-13T13:51:11.066Z,8.07
2023-03-13T13:53:45.189Z,10.95
2023-03-13T13:56:37.892Z,11.25
2023-03-13T13:59:24.712Z,12.65
2023-03-13T14:02:03.438Z,14.38
2023-03-13T14:04:40.947Z,9.10
2023-03-13T14:07:15.129Z,11.80
2023-03-13T14:10:00.254Z,9.32
2023-03-13T14:12:33.073Z,9.90
2023-03-13T14:15:10.250Z,11.95
2023-03-13T14:18:01.723Z,9.85
2023-03-13T14:20:32.797Z,5.63
2023-03-13T14:23:08.460Z,13.85
2023-03-13T14:25:47.698Z,12.60
2023-03-13T14:28:28.847Z,11.10
2023-03-13T14:30:57.570Z,11.32
2023-03-13T14:35:54.064Z,11.25
2023-03-13T14:38:23.305Z,10.38
2023-03-13T14:40:51.968Z,11.18
2023-03-13T14:43:32.448Z,13.52
2023-03-13T14:48:31.737Z,10.05
2023-03-13T14:51:15.537Z,10.88
2023-03-13T14:53:55.213Z,11.05
2023-03-13T14:56:34.655Z,10.23
2023-03-13T14:59:26.566Z,13.43
2023-03-13T15:02:12.745Z,13.32
2023-03-13T15:05:05.076Z,9.40
2023-03-13T15:07:40.777Z,10.35
2023-03-13T15:10:21.311Z,7.13
2023-03-13T15:12:48.532Z,10.10
2023-03-13T15:15:15.210Z,7.40
2023-03-13T15:17:41.852Z,8.85
2023-03-13T15:20:12.624Z,14.27
2023-03-13T15:22:41.549Z,11.45
2023-03-13T15:25:18.292Z,13.40
2023-03-13T15:27:45.074Z,8.30
2023-03-13T15:30:19.212Z,13.38
2023-03-13T15:32:46.974Z,12.60
2023-03-13T15:35:22.180Z,10.65
2023-03-13T15:37:48.662Z,12.18
2023-03-13T15:40:16.748Z,12.77
2023-03-13T15:42:43.325Z,8.20
2023-03-13T15:45:10.201Z,8.90
2023-03-13T15:47:36.962Z,11.30
2023-03-13T15:50:04.177Z,10.13
2023-03-13T15:52:31.501Z,12.13
2023-03-13T15:54:57.973Z,10.77
2023-03-13T15:57:26.256Z,11.75
2023-03-13T15:59:53.795Z,9.63
2023-03-13T16:02:23.363Z,11.80
2023-03-13T16:04:50.789Z,13.82
2023-03-13T16:07:20.729Z,13.52
2023-03-13T16:09:47.978Z,10.60
2023-03-13T16:12:14.465Z,13.68
2023-03-13T16:14:41.627Z,9.68
2023-03-13T16:17:14.644Z,10.00
2023-03-13T16:19:41.312Z,12.45
2023-03-13T16:22:07.847Z,11.90
2023-03-13T16:24:34.328Z,12.73
2023-03-13T16:27:00.799Z,16.10
2023-03-13T16:29:27.853Z,17.92
2023-03-13T16:31:54.312Z,17.60
2023-03-13T16:34:20.760Z,15.93
2023-03-13T16:36:47.252Z,17.10
2023-03-13T16:39:17.011Z,18.48
2023-03-13T16:41:43.413Z,9.55
2023-03-13T16:44:10.372Z,11.80
2023-03-13T16:46:39.888Z,13.80
2023-03-13T16:49:10.133Z,12.60
2023-03-13T16:51:36.631Z,15.43
2023-03-13T16:54:03.833Z,15.52
2023-03-13T16:56:36.456Z,14.73
2023-03-13T16:59:10.615Z,12.57
2023-03-13T17:01:37.583Z,17.92
2023-03-13T17:04:04.832Z,11.82
2023-03-13T17:06:37.057Z,19.45
2023-03-13T17:09:07.224Z,14.63
2023-03-13T17:11:33.778Z,19.25
2023-03-13T17:14:00.225Z,16.77
2023-03-13T17:16:33.059Z,18.48
2023-03-13T17:19:00.669Z,18.27
2023-03-13T17:21:30.061Z,16.23
2023-03-13T17:23:56.927Z,13.52
2023-03-13T17:26:33.739Z,14.52
2023-03-13T17:29:00.782Z,15.48
2023-03-13T17:31:30.300Z,18.30
2023-03-13T17:33:56.856Z,16.17
2023-03-13T17:36:27.090Z,19.42
2023-03-13T17:38:58.490Z,22.58
2023-03-13T17:41:27.864Z,18.38
2023-03-13T17:43:55.221Z,17.58
2023-03-13T17:46:24.379Z,23.15
2023-03-13T17:48:53.374Z,16.05
2023-03-13T17:53:49.128Z,20.33
2023-03-13T17:56:18.481Z,18.45
2023-03-13T17:58:45.563Z,23.90
2023-03-13T18:01:14.489Z,25.20
2023-03-13T18:03:41.859Z,16.55
2023-03-13T18:06:39.422Z,16.50
2023-03-13T18:09:08.671Z,16.42
2023-03-13T18:11:36.901Z,22.35
2023-03-13T18:14:05.357Z,14.15
2023-03-13T18:16:37.591Z,19.10
2023-03-13T18:19:21.972Z,20.23
2023-03-13T18:21:51.106Z,10.98
2023-03-13T18:24:17.832Z,16.45
2023-03-13T18:26:45.745Z,14.25
2023-03-13T18:29:14.834Z,15.20
2023-03-13T18:31:44.251Z,14.75
2023-03-13T18:34:12.366Z,22.13
2023-03-13T18:36:39.422Z,21.30
2023-03-13T18:39:06.514Z,17.20
2023-03-13T18:41:34.239Z,23.63
2023-03-13T18:44:03.608Z,18.80
2023-03-13T18:46:31.890Z,19.80
2023-03-13T18:49:00.428Z,15.65
2023-03-13T18:51:28.376Z,19.83
2023-03-13T18:53:55.174Z,14.00
2023-03-13T18:56:39.567Z,16.77
2023-03-13T18:59:11.191Z,13.52
2023-03-13T19:01:37.712Z,15.27
2023-03-13T19:04:04.182Z,15.63
2023-03-13T19:06:36.071Z,23.25
2023-03-13T19:12:06.587Z,14.15
2023-03-13T19:14:33.545Z,16.30
2023-03-13T19:16:59.988Z,14.07
2023-03-13T19:19:26.444Z,19.45
2023-03-13T19:21:56.650Z,25.25
2023-03-13T19:24:26.471Z,17.15
2023-03-13T19:26:58.384Z,16.05
2023-03-13T19:29:27.237Z,17.00
2023-03-13T19:31:54.638Z,10.80
2023-03-13T19:34:21.233Z,18.80
2023-03-13T19:36:49.357Z,20.90
2023-03-13T19:39:24.238Z,18.63
2023-03-13T19:41:51.612Z,18.27
2023-03-13T19:44:19.595Z,19.88
2023-03-13T19:46:46.713Z,15.55
2023-03-13T19:49:18.709Z,16.50
2023-03-13T19:51:45.565Z,16.30
2023-03-13T19:54:12.743Z,17.27
2023-03-13T19:56:41.308Z,17.75
2023-03-13T19:59:14.786Z,20.65
2023-03-13T20:01:41.696Z,21.02
2023-03-13T20:04:08.194Z,19.15
2023-03-13T20:06:35.577Z,14.90
2023-03-13T20:09:06.376Z,17.45
2023-03-13T20:11:33.492Z,18.55
2023-03-13T20:13:59.928Z,16.60
2023-03-13T20:16:30.039Z,15.93
2023-03-13T20:18:57.325Z,19.35
2023-03-13T20:21:27.499Z,20.48
2023-03-13T20:23:53.967Z,15.63
2023-03-13T20:26:21.463Z,19.25
2023-03-13T20:28:52.076Z,19.90
2023-03-13T20:31:21.989Z,20.23
2023-03-13T20:33:48.506Z,17.88
2023-03-13T20:36:17.712Z,17.48
2023-03-13T20:38:44.167Z,18.27
2023-03-13T20:41:11.502Z,14.35
2023-03-13T20:43:39.139Z,21.83
2023-03-13T20:46:09.771Z,23.05
2023-03-13T20:48:39.140Z,13.52
2023-03-13T20:51:07.268Z,15.15
2023-03-13T20:53:38.614Z,13.98
2023-03-13T20:56:07.282Z,15.05
2023-03-13T20:58:34.825Z,10.60
2023-03-13T21:01:02.974Z,15.48
2023-03-13T21:03:29.586Z,26.50
2023-03-13T21:05:55.997Z,14.35
2023-03-13T21:08:22.946Z,18.17
2023-03-13T21:10:49.451Z,23.50
2023-03-13T21:13:15.988Z,15.68
2023-03-13T21:15:42.509Z,19.20
2023-03-13T21:18:09.110Z,20.25
2023-03-13T21:20:38.297Z,17.98
2023-03-13T21:23:04.791Z,19.27
2023-03-13T21:25:31.446Z,18.15
2023-03-13T21:27:57.960Z,21.10
2023-03-13T21:30:24.484Z,16.75
2023-03-13T21:32:51.174Z,16.13
2023-03-13T21:35:17.928Z,13.88
2023-03-13T21:37:44.455Z,17.83
2023-03-13T21:40:12.307Z,18.67
2023-03-13T21:42:39.024Z,11.82
2023-03-13T21:45:06.687Z,14.02
2023-03-13T21:47:36.887Z,13.50
2023-03-13T21:50:06.949Z,14.55
2023-03-13T21:52:38.274Z,19.38
2023-03-13T21:55:09.934Z,19.73
2023-03-13T21:57:36.454Z,16.08
2023-03-13T22:00:07.823Z,19.92
2023-03-13T22:02:37.604Z,15.75
2023-03-13T22:05:05.045Z,14.18
2023-03-13T22:07:31.593Z,13.63
2023-03-13T22:09:58.562Z,13.45
2023-03-13T22:12:25.648Z,14.52
2023-03-13T22:14:52.921Z,14.52
2023-03-13T22:17:20.306Z,18.48
2023-03-13T22:19:47.385Z,11.20
2023-03-13T22:22:14.691Z,13.18
2023-03-13T22:24:41.885Z,15.82
2023-03-13T22:27:10.069Z,15.40
2023-03-13T22:29:36.627Z,11.63
2023-03-13T22:32:04.178Z,18.33
2023-03-13T22:34:30.875Z,17.15
2023-03-13T22:36:57.338Z,20.40
2023-03-13T22:39:23.828Z,19.05
2023-03-13T22:41:50.501Z,11.27
2023-03-13T22:44:16.966Z,12.18
2023-03-13T22:46:43.373Z,18.02
2023-03-13T22:49:09.815Z,15.98
2023-03-13T22:51:36.204Z,15.95
2023-03-13T22:54:02.675Z,25.35
2023-03-13T22:56:29.153Z,15.70
2023-03-13T22:58:55.576Z,15.63
2023-03-13T23:01:22.794Z,11.52
2023-03-13T23:03:49.412Z,16.35
2023-03-13T23:06:20.227Z,13.60
2023-03-13T23:08:47.032Z,16.50
2023-03-13T23:11:13.772Z,9.75
2023-03-13T23:13:40.702Z,13.82
2023-03-13T23:16:09.622Z,9.75
2023-03-13T23:21:08.938Z,17.73
2023-03-13T23:23:36.064Z,14.38
2023-03-13T23:26:04.749Z,17.20
2023-03-13T23:28:31.354Z,16.08
2023-03-13T23:30:57.817Z,11.32
2023-03-13T23:33:24.313Z,16.30
2023-03-13T23:35:50.789Z,14.98
2023-03-13T23:38:20.570Z,15.60
2023-03-13T23:40:47.027Z,14.20
2023-03-13T23:43:13.482Z,12.35
2023-03-13T23:45:39.894Z,12.63
2023-03-13T23:48:06.620Z,13.73
2023-03-13T23:50:33.084Z,10.45
2023-03-13T23:52:59.568Z,13.43
2023-03-13T23:55:26.072Z,14.85
2023-03-13T23:57:52.471Z,17.30
